• Join FlightAware (Why Join?)
  • Login
  • US Flag 
02:54AM EST


 

Airport Tracker/Info


-or-


 

Live Flight TrackerFlight Track Log ✈ VOZ539 ✈ 26-May-2013 ✈ YSSY / SYD - YBCG / OOL

Flight Track Log - Related Links

Times and Time Zones

All times are in EDT time to prevent confusion due to time zone crossing. See the VOZ539 flight status page for this flight to view local times or setup timezone preferences in your user account.

Time Position Orientation Groundspeed Altitude Reporting Facility
EDT Latitude Longitude Course Direction KTS MPH feet Rate Location/Type
04:15AM -33.9733 151.1946 142° Southeast 147 169 400  Level Aus ATC (RADAR)
04:15AM -33.9910 151.2110 138° Southeast 169 194 1,200 2,057 Climbing FlightAware
04:15AM -33.9922 151.2149 138° Southeast 164 189 1,600 1,200 Climbing Aus ATC (RADAR)
04:16AM -33.9970 151.2240 119° Southeast 186 214 1,500 1,059 Descending FlightAware
04:16AM -34.0092 151.2467 119° Southeast 204 235 2,200 960 Climbing Aus ATC (RADAR)
04:16AM -34.0110 151.2480 119° Southeast 225 259 1,900 333 Descending FlightAware
04:16AM -34.0240 151.2620 138° Southeast 254 292 2,300 1,317 Climbing FlightAware
04:17AM -34.0490 151.2860 142° Southeast 286 329 2,800 1,964 Climbing FlightAware
04:17AM -34.0800 151.3160 141° Southeast 295 339 4,100 2,746 Climbing FlightAware
04:18AM -34.1130 151.3490 140° Southeast 295 339 5,500 2,727 Climbing FlightAware
04:18AM -34.1380 151.3750 139° Southeast 309 356 6,600 2,700 Climbing FlightAware
04:18AM -34.1470 151.4010 113° Southeast 316 364 7,300 2,667 Climbing FlightAware
04:19AM -34.1370 151.4540 77° East 328 377 8,600 2,667 Climbing FlightAware
04:19AM -34.1220 151.4720 45° Northeast 329 379 9,300 2,640 Climbing FlightAware
04:19AM -34.1080 151.4810 28° Northeast 330 380 9,700 3,091 Climbing FlightAware
04:20AM -34.0704 151.4960 28° Northeast 339 390 11,000 2,478 Climbing Aus ATC (RADAR)
04:20AM -34.0460 151.5060 28° Northeast 345 397 11,600 3,070 Climbing FlightAware
04:20AM -34.0029 151.5236 28° Northeast 357 411 13,200 3,545 Climbing Aus ATC (RADAR)
04:21AM -33.9680 151.5380 28° Northeast 359 413 14,200 3,200 Climbing FlightAware
04:21AM -33.9074 151.5622 28° Northeast 367 422 16,400 3,150 Climbing Aus ATC (RADAR)
04:21AM -33.9030 151.5640 28° Northeast 361 415 16,300 2,455 Descending FlightAware
04:22AM -33.8390 151.5900 19° North 372 428 18,200 2,833 Climbing FlightAware
04:23AM -33.7797 151.6136 19° North 382 440 19,700 2,267 Climbing Aus ATC (RADAR)
04:23AM -33.7620 151.6210 19° North 390 449 19,900 2,914 Climbing FlightAware
04:23AM -33.7183 151.6384 19° North 393 452 21,400 3,000 Climbing Aus ATC (RADAR)
04:24AM -33.6900 151.6490 19° North 392 451 21,900 2,533 Climbing FlightAware
04:24AM -33.6389 151.6700 19° North 398 458 23,300 2,267 Climbing Aus ATC (RADAR)
04:24AM -33.6110 151.6810 19° North 410 472 23,600 2,057 Climbing FlightAware
04:25AM -33.5763 151.6952 19° North 403 464 24,500 1,200 Climbing Aus ATC (RADAR)
04:25AM -33.5560 151.7030 18° North 410 472 24,600 1,941 Climbing FlightAware
04:25AM -33.5142 151.7198 18° North 420 483 25,600 3,938 Climbing Aus ATC (RADAR)
04:26AM -33.4550 151.7433 18° North 423 487 26,700 1,535 Climbing Aus ATC (RADAR)
04:26AM -33.4350 151.7520 18° North 424 488 26,700 1,714 Level FlightAware
04:26AM -33.3885 151.7698 18° North 429 494 27,700 1,800 Climbing Aus ATC (RADAR)
04:27AM -33.3590 151.7820 18° North 438 504 27,900 1,448 Climbing FlightAware
04:27AM -33.2810 151.8130 18° North 444 511 29,100 1,941 Climbing FlightAware
04:28AM -33.2236 151.8358 18° North 443 510 30,100 1,467 Climbing Aus ATC (RADAR)
04:28AM -33.1910 151.8480 18° North 444 511 30,200 1,543 Climbing FlightAware
04:28AM -33.1542 151.8632 18° North 449 517 31,000 1,500 Climbing Aus ATC (RADAR)
04:29AM -33.1110 151.8800 18° North 457 526 31,200 1,333 Climbing FlightAware
04:29AM -33.0643 151.8992 18° North 452 520 32,000 1,500 Climbing Aus ATC (RADAR)
04:29AM -33.0300 151.9120 18° North 461 531 32,200 1,714 Climbing FlightAware
04:30AM -32.9925 151.9276 18° North 458 527 33,000 1,680 Climbing Aus ATC (RADAR)
04:30AM -32.9810 151.9310 18° North 458 527 32,900 1,886 Descending FlightAware
04:30AM -32.9226 151.9553 18° North 454 522 34,100 1,895 Climbing Aus ATC (RADAR)
04:31AM -32.8625 151.9789 18° North 453 521 34,700 545 Climbing Aus ATC (RADAR)
04:31AM -32.8620 151.9790 18° North 458 527 34,400 857 Descending FlightAware
04:31AM -32.7913 152.0063 18° North 458 527 35,200 955 Climbing Aus ATC (RADAR)
04:31AM -32.7740 152.0130 18° North 464 534 35,100 720 Descending FlightAware
04:32AM -32.6960 152.0430 18° North 467 537 35,800 1,579 Climbing FlightAware
04:33AM -32.6112 152.0771 18° North 465 535 37,100 1,467 Climbing Aus ATC (RADAR)
04:33AM -32.6060 152.0790 18° North 461 531 36,900 1,200 Descending FlightAware
04:33AM -32.5407 152.1044 18° North 459 528 37,800 1,167 Climbing Aus ATC (RADAR)
04:33AM -32.5340 152.1070 18° North 458 527 37,600 857 Descending FlightAware
04:34AM -32.4561 152.1375 18° North 455 524 38,400 766 Climbing Aus ATC (RADAR)
04:34AM -32.4370 152.1450 18° North 461 531 38,200 -231 Descending FlightAware
04:34AM -32.4100 152.1560 18° North 462 532 38,300 1,429 Climbing FlightAware
04:35AM -32.3851 152.1650 18° North 459 528 38,700 977 Climbing Aus ATC (RADAR)
04:35AM -32.3134 152.1932 18° North 466 536 39,000  Climbing Aus ATC (RADAR)
04:35AM -32.3080 152.1950 18° North 462 532 38,700 529 Descending FlightAware
04:36AM -32.2451 152.2197 18° North 469 540 39,300 400 Climbing Aus ATC (RADAR)
04:36AM -32.2190 152.2290 18° North 473 544 39,000  Descending FlightAware
04:36AM -32.1725 152.2479 18° North 470 541 39,300  Climbing Aus ATC (RADAR)
04:37AM -32.1450 152.2590 18° North 472 543 39,000 -295 Descending FlightAware
04:37AM -32.0500 152.2960 18° North 471 542 39,000 225 Level FlightAware
04:38AM -31.9716 152.3257 18° North 468 539 39,300  Climbing Aus ATC (RADAR)
04:38AM -31.9690 152.3270 18° North 470 541 39,000  Descending FlightAware
04:39AM -31.8992 152.3535 18° North 469 540 39,300  Climbing Aus ATC (RADAR)
04:39AM -31.8800 152.3610 18° North 469 540 39,000  Descending FlightAware
04:39AM -31.8001 152.3914 18° North 466 536 39,300  Climbing Aus ATC (RADAR)
04:39AM -31.7940 152.3930 18° North 469 540 39,000  Descending FlightAware
04:40AM -31.7279 152.4191 18° North 465 535 39,300  Climbing Aus ATC (RADAR)
04:40AM -31.7420 152.4130 18° North 469 540 39,000  Descending FlightAware
04:40AM -31.6558 152.4469 18° North 466 536 39,300  Climbing Aus ATC (RADAR)
04:41AM -31.6290 152.4570 18° North 469 540 39,000  Descending FlightAware
04:42AM -31.5177 152.4989 18° North 468 539 39,300  Climbing Aus ATC (RADAR)
04:42AM -31.4920 152.5090 18° North 468 539 39,000  Descending FlightAware
04:42AM -31.4150 152.5384 18° North 466 536 39,300  Climbing Aus ATC (RADAR)
04:43AM -31.4180 152.5370 18° North 468 539 39,000  Descending FlightAware
04:43AM -31.3640 152.5584 18° North 464 534 39,300  Climbing Aus ATC (RADAR)
04:43AM -31.3330 152.5690 18° North 468 539 39,000  Descending FlightAware
04:43AM -31.2918 152.5855 18° North 465 535 39,300  Climbing Aus ATC (RADAR)
04:44AM -31.2450 152.6030 18° North 468 539 39,000  Descending FlightAware
04:44AM -31.1989 152.6204 18° North 467 537 39,300  Climbing Aus ATC (RADAR)
04:45AM -31.1690 152.6320 18° North 468 539 39,000 -261 Descending FlightAware
04:45AM -31.0840 152.6640 18° North 468 539 39,000 429 Level FlightAware
04:45AM -31.0548 152.6753 18° North 469 540 39,300 600 Climbing Aus ATC (RADAR)
04:46AM -30.9931 152.6980 18° North 466 536 39,300 -500 Level Aus ATC (RADAR)
04:46AM -31.0010 152.6940 18° North 468 539 39,000  Descending FlightAware
04:46AM -30.9209 152.7260 18° North 467 537 39,300  Climbing Aus ATC (RADAR)
04:47AM -30.9160 152.7240 18° North 468 539 39,000 -321 Descending FlightAware
04:47AM -30.8530 152.7470 18° North 468 539 39,000 450 Level FlightAware
04:47AM -30.7966 152.7724 18° North 470 541 39,300 621 Climbing Aus ATC (RADAR)
04:48AM -30.7449 152.7919 18° North 469 540 39,300 -439 Level Aus ATC (RADAR)
04:48AM -30.7150 152.8030 18° North 471 542 39,000  Descending FlightAware
04:48AM -30.6723 152.8191 18° North 471 542 39,300  Climbing Aus ATC (RADAR)
04:49AM -30.6310 152.8340 18° North 471 542 39,000  Descending FlightAware
04:49AM -30.5791 152.8541 18° North 469 540 39,300  Climbing Aus ATC (RADAR)
04:50AM -30.5390 152.8680 18° North 472 543 39,000  Descending FlightAware
04:50AM -30.4334 152.9079 18° North 470 541 39,300 217 Climbing Aus ATC (RADAR)
04:51AM -30.3638 152.9335 18° North 465 535 39,300 -305 Level Aus ATC (RADAR)
04:51AM -30.3440 152.9380 18° North 471 542 39,000 -250 Descending FlightAware
04:52AM -30.2170 152.9880 19° North 470 541 39,000 254 Level FlightAware
04:52AM -30.1637 153.0083 19° North 470 541 39,300  Climbing Aus ATC (RADAR)
04:53AM -30.1340 153.0190 19° North 470 541 39,000  Descending FlightAware
04:53AM -30.0392 153.0541 19° North 469 540 39,300  Climbing Aus ATC (RADAR)
04:54AM -30.0390 153.0540 19° North 474 545 39,000 -439 Descending FlightAware
04:54AM -29.9590 153.0840 18° North 483 556 39,000 231 Level FlightAware
04:55AM -29.8725 153.1149 18° North 477 549 39,300  Climbing Aus ATC (RADAR)
04:55AM -29.8800 153.1130 18° North 484 557 39,000  Descending FlightAware
04:55AM -29.7978 153.1425 18° North 478 550 39,300  Climbing Aus ATC (RADAR)
04:56AM -29.7730 153.1520 18° North 486 559 39,000  Descending FlightAware
04:56AM -29.7305 153.1677 18° North 484 557 39,300  Climbing Aus ATC (RADAR)
04:56AM -29.6980 153.1790 18° North 488 562 39,000  Descending FlightAware
04:56AM -29.6551 153.1942 18° North 486 559 39,300  Climbing Aus ATC (RADAR)
04:57AM -29.5910 153.2190 18° North 488 562 39,000 -1,522 Descending FlightAware
04:58AM -29.5160 153.2460 18° North 487 560 37,600 -2,053 Descending FlightAware
04:58AM -29.5050 153.2494 18° North 486 559 37,700 -2,143 Climbing Aus ATC (RADAR)
04:58AM -29.4516 153.2696 18° North 487 560 36,600 -2,526 Descending Aus ATC (RADAR)
04:58AM -29.4310 153.2770 18° North 474 545 36,100 -2,229 Descending FlightAware
04:59AM -29.3767 153.2964 18° North 481 554 35,300 -2,880 Descending Aus ATC (RADAR)
04:59AM -29.3210 153.3170 18° North 470 541 33,700 -3,000 Descending FlightAware
05:00AM -29.2390 153.3470 18° North 474 545 31,900 -3,114 Descending FlightAware
05:00AM -29.1560 153.3770 18° North 475 547 29,600 -3,286 Descending FlightAware
05:00AM -29.1464 153.3806 18° North 475 547 29,600 -3,730 Level Aus ATC (RADAR)
05:01AM -29.0747 153.4033 18° North 469 540 27,300 -4,378 Descending Aus ATC (RADAR)
05:01AM -29.0800 153.4050 18° North 485 558 26,900 -3,429 Descending FlightAware
05:02AM -29.0012 153.4335 18° North 470 541 25,300 -3,467 Descending Aus ATC (RADAR)
05:02AM -28.9740 153.4430 18° North 475 547 24,300 -3,283 Descending FlightAware
05:03AM -28.8930 153.4720 17° North 461 531 22,400 -2,630 Descending FlightAware
05:03AM -28.8235 153.4969 17° North 454 522 21,100 -2,800 Descending Aus ATC (RADAR)
05:03AM -28.8040 153.5040 17° North 446 513 20,300 -2,743 Descending FlightAware
05:04AM -28.7547 153.5223 17° North 447 514 19,500 -2,700 Descending Aus ATC (RADAR)
05:04AM -28.7240 153.5330 17° North 435 501 18,500 -2,800 Descending FlightAware
05:04AM -28.6687 153.5532 17° North 434 499 17,400 -2,800 Descending Aus ATC (RADAR)
05:05AM -28.6390 153.5640 17° North 424 488 16,400 -2,743 Descending FlightAware
05:05AM -28.6032 153.5766 17° North 426 490 15,800 -2,634 Descending Aus ATC (RADAR)
05:05AM -28.5640 153.5900 17° North 415 478 14,600 -2,585 Descending FlightAware
05:06AM -28.4832 153.6118 17° North 414 476 13,000 -2,591 Descending Aus ATC (RADAR)
05:06AM -28.4830 153.6110 17° North 405 466 12,700 -2,500 Descending FlightAware
05:07AM -28.4185 153.6213 17° North 405 466 11,500 -2,700 Descending Aus ATC (RADAR)
05:07AM -28.4070 153.6230 17° North 397 457 10,900 -3,333 Descending FlightAware
05:07AM -28.3520 153.6310 North 392 451 9,500 -2,491 Descending FlightAware
05:08AM -28.3100 153.6378 North 393 452 8,700 -2,640 Descending Aus ATC (RADAR)
05:08AM -28.3090 153.6380 North 388 447 8,400 -2,640 Descending FlightAware
05:08AM -28.2658 153.6445 North 386 444 7,600 -2,600 Descending Aus ATC (RADAR)
05:08AM -28.2560 153.6430 North 384 442 7,100 -2,625 Descending FlightAware
05:09AM -28.2120 153.6370 353° North 366 421 6,200 -2,105 Descending FlightAware
05:09AM -28.1580 153.6230 347° North 363 418 5,100 -1,277 Descending FlightAware
05:09AM -28.1308 153.6167 347° North 363 418 5,200 -923 Climbing Aus ATC (RADAR)
05:10AM -28.1180 153.6130 347° North 332 382 4,700 -343 Descending FlightAware
05:10AM -28.0793 153.6038 347° North 326 375 5,000  Climbing Aus ATC (RADAR)
05:10AM -28.0830 153.6040 347° North 311 358 4,700 -909 Descending FlightAware
05:11AM -28.0380 153.5930 347° North 284 327 4,500  Descending FlightAware
05:11AM -28.0333 153.5914 347° North 292 336 4,700 -545 Climbing Aus ATC (RADAR)
05:11AM -28.0270 153.5870 334° Northwest 279 321 4,400 -1,304 Descending FlightAware
05:11AM -28.0130 153.5710 315° West 267 307 4,200 -621 Descending FlightAware
05:11AM -28.0070 153.5520 290° West 254 292 4,100  Descending FlightAware
05:12AM -28.0018 153.5173 290° West 238 274 4,200 -900 Climbing Aus ATC (RADAR)
05:12AM -28.0020 153.5040 290° West 227 261 3,500 -1,674 Descending FlightAware
05:12AM -28.0060 153.4720 262° West 209 241 3,000 -1,067 Descending FlightAware
05:13AM -28.0170 153.4590 226° Southwest 195 224 2,700 -1,000 Descending FlightAware
05:13AM -28.0280 153.4550 226° Southwest 179 206 2,400 -545 Descending FlightAware
05:13AM -28.0364 153.4541 226° Southwest 193 222 2,500 -667 Climbing Aus ATC (RADAR)
05:14AM -28.0622 153.4646 226° Southwest 165 190 2,000 -343 Descending Aus ATC (RADAR)
05:14AM -28.0520 153.4550 226° Southwest 175 201 2,300 -1,385 Climbing FlightAware
05:14AM -28.0770 153.4700 152° Southeast 153 176 1,400 -1,200 Descending FlightAware
05:14AM -28.0915 153.4753 152° Southeast 145 167 1,400 -136 Level Aus ATC (RADAR)
05:15AM -28.1000 153.4790 152° Southeast 139 160 1,300 -686 Descending FlightAware
05:15AM -28.1334 153.4859 152° Southeast 135 155 600 -880 Descending Aus ATC (RADAR)
05:16AM -28.1500 153.4969 150° Southeast 135 155 200 -800 Descending Aus ATC (RADAR)